South Gate, California
Current Conditions -  °F | °C
As of 3:47 AM on Tuesday 27 Jan 2015 (Local Time) from KCQT Reporting Station
Overcast Overcast  
Wind Chill: 58°   Ceiling: 6500
Heat Index: 58°   Visibility: 9mi
Dew Point: 53°   Wind: 0mph
Humidity: 84%   Direction: NA
Pressure: 30.12"   Gusts: NA
Location:  33.96°N, 118.2°W
Report Text: KCQT 271147Z AUTO 00000KT 9SM BKN065 OVC100 14/12 A3012 RMK AO2 SLP199 60000 70008 T01440117 10150 20139 53005 $
Loading
Personal Weather Stations






























Interactive Weather Map New forecast layout! Learn more

10-Day Weather Forecast

Advertisements
Track Severe Weather on mobile